Portada
METAR-TAF:

METAR-TAF

Aeropuertos :

Aeropuerto de Córdoba

Córdoba, España

latitud: 37-51N, longitud: 004-51W, altitud: 90 m

Observación

El informe se hizo hace 29 minutos, a las 06:00 UTC
Viento 3 kt del suroeste
Temperatura 18°C
Humedad 68%
Presión 1020 hPa
Visibilidad 10 km o más
sin nubes por debajo de 1500 m y sin presencia de cumulonimbus.

METAR: LEBA 240600Z 22003KT CAVOK 18/12 Q1020

Hora: 08:29 (06:29 UTC)

Pronóstico

El informe se hizo hace 1 hora y 29 minutos, a las 05:00 UTC
Pronóstico válido del 24 a las 06 UTC al 24 a las 15 UTC
Viento 6 kt del este-noreste
Visibilidad 10 km o más
sin nubes por debajo de 1500 m y sin presencia de cumulonimbus.

TAF: LEBA 240500Z 2406/2415 07006KT CAVOK

Observaciones y pronósticos meteorológicos de más de 4000 aeropuertos (mensajes METAR y TAF).

Los puntos amarillos y rojos representan las estaciones disponibles.

Ponga el ratón en el punto deseado para ver el nombre de la estación.

Haga clic para ver las observaciones y los pronósticos meteorológicos.

Para cambiar el mapa : haga clic en los botones verdes con una cruz de color negro para hacer un zoom, en el botón verde con un guión para alejar o en las flechas verdes para mapas adyacentes.


METAR-TAF: